sensor_id;sensor_type;location;lat;lon;timestamp;P1;durP1;ratioP1;P2;durP2;ratioP2
9834;SDS011;69850;50.942;13.748;2023-11-19T00:01:11;15.45;;;10.70;;
9834;SDS011;69850;50.942;13.748;2023-11-19T00:04:31;14.82;;;9.93;;
9834;SDS011;69850;50.942;13.748;2023-11-19T00:07:52;14.10;;;9.95;;
9834;SDS011;69850;50.942;13.748;2023-11-19T00:11:13;12.63;;;9.23;;
9834;SDS011;69850;50.942;13.748;2023-11-19T00:14:35;13.38;;;8.90;;
9834;SDS011;69850;50.942;13.748;2023-11-19T00:17:56;12.60;;;8.07;;
9834;SDS011;69850;50.942;13.748;2023-11-19T00:21:17;11.73;;;8.43;;
9834;SDS011;69850;50.942;13.748;2023-11-19T00:24:38;10.65;;;7.63;;
9834;SDS011;69850;50.942;13.748;2023-11-19T00:27:59;10.05;;;7.60;;
9834;SDS011;69850;50.942;13.748;2023-11-19T00:31:20;10.43;;;7.55;;
9834;SDS011;69850;50.942;13.748;2023-11-19T00:34:43;10.00;;;6.78;;
9834;SDS011;69850;50.942;13.748;2023-11-19T00:38:04;8.80;;;6.70;;
9834;SDS011;69850;50.942;13.748;2023-11-19T00:41:25;8.43;;;5.57;;
9834;SDS011;69850;50.942;13.748;2023-11-19T00:44:45;6.60;;;4.72;;
9834;SDS011;69850;50.942;13.748;2023-11-19T00:48:06;5.43;;;3.70;;
9834;SDS011;69850;50.942;13.748;2023-11-19T00:51:27;4.47;;;3.47;;
9834;SDS011;69850;50.942;13.748;2023-11-19T00:54:48;3.35;;;2.90;;
9834;SDS011;69850;50.942;13.748;2023-11-19T00:58:09;3.90;;;2.90;;
9834;SDS011;69850;50.942;13.748;2023-11-19T01:01:30;3.70;;;2.35;;
9834;SDS011;69850;50.942;13.748;2023-11-19T01:04:51;2.72;;;2.40;;
9834;SDS011;69850;50.942;13.748;2023-11-19T01:08:12;3.22;;;2.63;;
9834;SDS011;69850;50.942;13.748;2023-11-19T01:11:33;2.45;;;2.08;;
9834;SDS011;69850;50.942;13.748;2023-11-19T01:14:53;4.28;;;3.20;;
9834;SDS011;69850;50.942;13.748;2023-11-19T01:18:16;4.28;;;3.20;;
9834;SDS011;69850;50.942;13.748;2023-11-19T01:21:36;4.57;;;3.15;;
9834;SDS011;69850;50.942;13.748;2023-11-19T01:24:57;4.95;;;3.40;;
9834;SDS011;69850;50.942;13.748;2023-11-19T01:28:18;5.72;;;4.30;;
9834;SDS011;69850;50.942;13.748;2023-11-19T01:31:42;3.25;;;2.60;;
9834;SDS011;69850;50.942;13.748;2023-11-19T01:35:03;2.72;;;1.80;;
9834;SDS011;69850;50.942;13.748;2023-11-19T01:38:24;2.97;;;1.92;;
9834;SDS011;69850;50.942;13.748;2023-11-19T01:41:45;1.75;;;1.50;;
9834;SDS011;69850;50.942;13.748;2023-11-19T01:45:06;3.95;;;1.58;;
9834;SDS011;69850;50.942;13.748;2023-11-19T01:48:30;1.30;;;1.20;;
9834;SDS011;69850;50.942;13.748;2023-11-19T01:51:52;1.60;;;1.27;;
9834;SDS011;69850;50.942;13.748;2023-11-19T01:55:13;2.47;;;1.42;;
9834;SDS011;69850;50.942;13.748;2023-11-19T01:58:35;1.67;;;1.30;;
9834;SDS011;69850;50.942;13.748;2023-11-19T02:01:56;2.17;;;1.83;;
9834;SDS011;69850;50.942;13.748;2023-11-19T02:05:18;2.15;;;1.60;;
9834;SDS011;69850;50.942;13.748;2023-11-19T02:08:38;1.67;;;1.58;;
9834;SDS011;69850;50.942;13.748;2023-11-19T02:11:59;2.45;;;1.95;;
9834;SDS011;69850;50.942;13.748;2023-11-19T02:15:20;2.30;;;1.80;;
9834;SDS011;69850;50.942;13.748;2023-11-19T02:18:42;3.25;;;2.15;;
9834;SDS011;69850;50.942;13.748;2023-11-19T02:22:03;2.45;;;2.10;;
9834;SDS011;69850;50.942;13.748;2023-11-19T02:25:25;2.55;;;2.20;;
9834;SDS011;69850;50.942;13.748;2023-11-19T02:28:50;2.85;;;2.30;;
9834;SDS011;69850;50.942;13.748;2023-11-19T02:32:11;2.40;;;2.00;;
9834;SDS011;69850;50.942;13.748;2023-11-19T02:35:34;3.97;;;2.10;;
9834;SDS011;69850;50.942;13.748;2023-11-19T02:38:55;3.15;;;2.10;;
9834;SDS011;69850;50.942;13.748;2023-11-19T02:42:15;2.80;;;2.15;;
9834;SDS011;69850;50.942;13.748;2023-11-19T02:45:37;3.13;;;2.20;;
9834;SDS011;69850;50.942;13.748;2023-11-19T02:48:57;2.58;;;1.88;;
9834;SDS011;69850;50.942;13.748;2023-11-19T02:52:18;3.22;;;2.08;;
9834;SDS011;69850;50.942;13.748;2023-11-19T02:55:39;2.55;;;1.92;;
9834;SDS011;69850;50.942;13.748;2023-11-19T02:59:01;2.13;;;1.85;;
9834;SDS011;69850;50.942;13.748;2023-11-19T03:02:29;2.28;;;1.67;;
9834;SDS011;69850;50.942;13.748;2023-11-19T03:05:54;1.98;;;1.58;;
9834;SDS011;69850;50.942;13.748;2023-11-19T03:09:15;1.70;;;1.40;;
9834;SDS011;69850;50.942;13.748;2023-11-19T03:12:36;1.50;;;1.38;;
9834;SDS011;69850;50.942;13.748;2023-11-19T03:15:56;2.42;;;1.50;;
9834;SDS011;69850;50.942;13.748;2023-11-19T03:19:17;4.93;;;1.60;;
9834;SDS011;69850;50.942;13.748;2023-11-19T03:22:37;2.03;;;1.55;;
9834;SDS011;69850;50.942;13.748;2023-11-19T03:25:59;1.48;;;1.38;;
9834;SDS011;69850;50.942;13.748;2023-11-19T03:29:23;2.30;;;1.50;;
9834;SDS011;69850;50.942;13.748;2023-11-19T03:32:44;2.08;;;1.60;;
9834;SDS011;69850;50.942;13.748;2023-11-19T03:36:05;2.17;;;1.70;;
9834;SDS011;69850;50.942;13.748;2023-11-19T03:39:26;2.35;;;1.73;;
9834;SDS011;69850;50.942;13.748;2023-11-19T03:42:49;3.08;;;1.80;;
9834;SDS011;69850;50.942;13.748;2023-11-19T03:46:19;2.70;;;2.28;;
9834;SDS011;69850;50.942;13.748;2023-11-19T03:49:41;3.40;;;2.30;;
9834;SDS011;69850;50.942;13.748;2023-11-19T03:53:02;2.00;;;1.80;;
9834;SDS011;69850;50.942;13.748;2023-11-19T03:56:23;2.42;;;1.88;;
9834;SDS011;69850;50.942;13.748;2023-11-19T03:59:43;2.10;;;1.90;;
9834;SDS011;69850;50.942;13.748;2023-11-19T04:03:04;2.65;;;1.95;;
9834;SDS011;69850;50.942;13.748;2023-11-19T04:06:25;3.13;;;2.10;;
9834;SDS011;69850;50.942;13.748;2023-11-19T04:09:46;2.47;;;2.00;;
9834;SDS011;69850;50.942;13.748;2023-11-19T04:13:07;2.53;;;2.25;;
9834;SDS011;69850;50.942;13.748;2023-11-19T04:16:27;2.47;;;1.90;;
9834;SDS011;69850;50.942;13.748;2023-11-19T04:19:49;2.47;;;2.08;;
9834;SDS011;69850;50.942;13.748;2023-11-19T04:23:09;2.67;;;2.15;;
9834;SDS011;69850;50.942;13.748;2023-11-19T04:26:31;2.53;;;2.15;;
9834;SDS011;69850;50.942;13.748;2023-11-19T04:29:52;2.45;;;1.98;;
9834;SDS011;69850;50.942;13.748;2023-11-19T04:33:12;3.42;;;1.80;;
9834;SDS011;69850;50.942;13.748;2023-11-19T04:36:33;2.30;;;1.80;;
9834;SDS011;69850;50.942;13.748;2023-11-19T04:39:55;2.28;;;1.80;;
9834;SDS011;69850;50.942;13.748;2023-11-19T04:43:16;5.65;;;2.17;;
9834;SDS011;69850;50.942;13.748;2023-11-19T04:46:36;2.65;;;1.80;;
9834;SDS011;69850;50.942;13.748;2023-11-19T04:49:57;3.47;;;2.30;;
9834;SDS011;69850;50.942;13.748;2023-11-19T04:53:18;5.57;;;2.90;;
9834;SDS011;69850;50.942;13.748;2023-11-19T04:56:38;6.57;;;3.75;;
9834;SDS011;69850;50.942;13.748;2023-11-19T04:59:59;7.25;;;4.93;;
9834;SDS011;69850;50.942;13.748;2023-11-19T05:03:20;3.38;;;2.47;;
9834;SDS011;69850;50.942;13.748;2023-11-19T05:06:43;3.42;;;2.85;;
9834;SDS011;69850;50.942;13.748;2023-11-19T05:10:03;5.07;;;3.08;;
9834;SDS011;69850;50.942;13.748;2023-11-19T05:13:26;5.43;;;3.40;;
9834;SDS011;69850;50.942;13.748;2023-11-19T05:16:46;4.15;;;2.85;;
9834;SDS011;69850;50.942;13.748;2023-11-19T05:20:08;3.72;;;3.20;;
9834;SDS011;69850;50.942;13.748;2023-11-19T05:23:33;5.20;;;3.65;;
9834;SDS011;69850;50.942;13.748;2023-11-19T05:26:54;5.50;;;3.70;;
9834;SDS011;69850;50.942;13.748;2023-11-19T05:30:15;5.32;;;4.05;;
9834;SDS011;69850;50.942;13.748;2023-11-19T05:33:35;6.65;;;3.97;;
9834;SDS011;69850;50.942;13.748;2023-11-19T05:36:56;5.00;;;3.58;;
9834;SDS011;69850;50.942;13.748;2023-11-19T05:40:17;5.28;;;4.05;;
9834;SDS011;69850;50.942;13.748;2023-11-19T05:43:40;5.38;;;3.80;;
9834;SDS011;69850;50.942;13.748;2023-11-19T05:47:01;4.53;;;3.45;;
9834;SDS011;69850;50.942;13.748;2023-11-19T05:50:22;6.30;;;5.43;;
9834;SDS011;69850;50.942;13.748;2023-11-19T05:53:42;4.18;;;2.92;;
9834;SDS011;69850;50.942;13.748;2023-11-19T05:57:04;5.18;;;3.95;;
9834;SDS011;69850;50.942;13.748;2023-11-19T06:00:25;2.20;;;1.83;;
9834;SDS011;69850;50.942;13.748;2023-11-19T06:03:46;2.38;;;1.85;;
9834;SDS011;69850;50.942;13.748;2023-11-19T06:07:10;2.28;;;2.08;;
9834;SDS011;69850;50.942;13.748;2023-11-19T06:10:30;1.63;;;1.50;;
9834;SDS011;69850;50.942;13.748;2023-11-19T06:13:51;3.50;;;1.65;;
9834;SDS011;69850;50.942;13.748;2023-11-19T06:17:11;1.20;;;1.10;;
9834;SDS011;69850;50.942;13.748;2023-11-19T06:20:33;0.85;;;0.80;;
9834;SDS011;69850;50.942;13.748;2023-11-19T06:23:53;1.42;;;1.00;;
9834;SDS011;69850;50.942;13.748;2023-11-19T06:27:14;0.60;;;0.60;;
9834;SDS011;69850;50.942;13.748;2023-11-19T06:30:35;0.80;;;0.80;;
9834;SDS011;69850;50.942;13.748;2023-11-19T06:33:56;1.15;;;1.00;;
9834;SDS011;69850;50.942;13.748;2023-11-19T06:37:17;0.50;;;0.50;;
9834;SDS011;69850;50.942;13.748;2023-11-19T06:40:37;0.70;;;0.70;;
9834;SDS011;69850;50.942;13.748;2023-11-19T06:43:58;0.30;;;0.30;;
9834;SDS011;69850;50.942;13.748;2023-11-19T06:47:20;1.10;;;0.40;;
9834;SDS011;69850;50.942;13.748;2023-11-19T06:50:41;0.63;;;0.55;;
9834;SDS011;69850;50.942;13.748;2023-11-19T06:54:01;0.60;;;0.45;;
9834;SDS011;69850;50.942;13.748;2023-11-19T06:57:22;0.90;;;0.40;;
9834;SDS011;69850;50.942;13.748;2023-11-19T07:00:44;0.50;;;0.50;;
9834;SDS011;69850;50.942;13.748;2023-11-19T07:04:06;0.65;;;0.50;;
9834;SDS011;69850;50.942;13.748;2023-11-19T07:07:30;1.20;;;0.70;;
9834;SDS011;69850;50.942;13.748;2023-11-19T07:10:52;0.50;;;0.50;;
9834;SDS011;69850;50.942;13.748;2023-11-19T07:14:13;1.40;;;0.50;;
9834;SDS011;69850;50.942;13.748;2023-11-19T07:17:34;1.85;;;0.30;;
9834;SDS011;69850;50.942;13.748;2023-11-19T07:20:55;0.45;;;0.45;;
9834;SDS011;69850;50.942;13.748;2023-11-19T07:24:15;0.63;;;0.30;;
9834;SDS011;69850;50.942;13.748;2023-11-19T07:27:36;0.50;;;0.30;;
9834;SDS011;69850;50.942;13.748;2023-11-19T07:30:58;0.95;;;0.40;;
9834;SDS011;69850;50.942;13.748;2023-11-19T07:34:19;0.88;;;0.40;;
9834;SDS011;69850;50.942;13.748;2023-11-19T07:37:41;0.22;;;0.22;;
9834;SDS011;69850;50.942;13.748;2023-11-19T07:41:02;0.30;;;0.30;;
9834;SDS011;69850;50.942;13.748;2023-11-19T07:44:23;0.30;;;0.30;;
9834;SDS011;69850;50.942;13.748;2023-11-19T07:47:44;0.20;;;0.20;;
9834;SDS011;69850;50.942;13.748;2023-11-19T07:51:05;0.30;;;0.30;;
9834;SDS011;69850;50.942;13.748;2023-11-19T07:54:26;0.35;;;0.20;;
9834;SDS011;69850;50.942;13.748;2023-11-19T07:57:47;0.30;;;0.25;;
9834;SDS011;69850;50.942;13.748;2023-11-19T08:01:09;0.45;;;0.30;;
9834;SDS011;69850;50.942;13.748;2023-11-19T08:04:29;0.43;;;0.20;;
9834;SDS011;69850;50.942;13.748;2023-11-19T08:07:50;0.93;;;0.20;;
9834;SDS011;69850;50.942;13.748;2023-11-19T08:11:13;0.10;;;0.10;;
9834;SDS011;69850;50.942;13.748;2023-11-19T08:14:34;0.43;;;0.20;;
9834;SDS011;69850;50.942;13.748;2023-11-19T08:17:55;1.60;;;0.28;;
9834;SDS011;69850;50.942;13.748;2023-11-19T08:21:16;0.45;;;0.30;;
9834;SDS011;69850;50.942;13.748;2023-11-19T08:24:36;1.33;;;0.20;;
9834;SDS011;69850;50.942;13.748;2023-11-19T08:27:57;0.22;;;0.20;;
9834;SDS011;69850;50.942;13.748;2023-11-19T08:31:18;0.43;;;0.30;;
9834;SDS011;69850;50.942;13.748;2023-11-19T08:34:38;0.38;;;0.30;;
9834;SDS011;69850;50.942;13.748;2023-11-19T08:37:59;0.20;;;0.20;;
9834;SDS011;69850;50.942;13.748;2023-11-19T08:41:20;0.30;;;0.30;;
9834;SDS011;69850;50.942;13.748;2023-11-19T08:44:42;0.50;;;0.30;;
9834;SDS011;69850;50.942;13.748;2023-11-19T08:48:04;0.95;;;0.40;;
9834;SDS011;69850;50.942;13.748;2023-11-19T08:51:25;2.88;;;0.50;;
9834;SDS011;69850;50.942;13.748;2023-11-19T08:54:48;3.53;;;1.35;;
9834;SDS011;69850;50.942;13.748;2023-11-19T08:58:09;1.73;;;0.50;;
9834;SDS011;69850;50.942;13.748;2023-11-19T09:01:29;2.92;;;0.52;;
9834;SDS011;69850;50.942;13.748;2023-11-19T09:04:50;1.60;;;0.55;;
9834;SDS011;69850;50.942;13.748;2023-11-19T09:08:11;2.05;;;0.60;;
9834;SDS011;69850;50.942;13.748;2023-11-19T09:11:32;2.58;;;0.50;;
9834;SDS011;69850;50.942;13.748;2023-11-19T09:14:52;3.05;;;0.70;;
9834;SDS011;69850;50.942;13.748;2023-11-19T09:18:13;2.35;;;0.65;;
9834;SDS011;69850;50.942;13.748;2023-11-19T09:21:34;2.40;;;0.60;;
9834;SDS011;69850;50.942;13.748;2023-11-19T09:24:57;9.77;;;3.00;;
9834;SDS011;69850;50.942;13.748;2023-11-19T09:28:19;1.20;;;0.70;;
9834;SDS011;69850;50.942;13.748;2023-11-19T09:31:40;0.80;;;0.52;;
9834;SDS011;69850;50.942;13.748;2023-11-19T09:35:01;2.33;;;0.60;;
9834;SDS011;69850;50.942;13.748;2023-11-19T09:38:23;4.75;;;0.80;;
9834;SDS011;69850;50.942;13.748;2023-11-19T09:41:44;4.22;;;0.82;;
9834;SDS011;69850;50.942;13.748;2023-11-19T09:45:05;6.30;;;0.85;;
9834;SDS011;69850;50.942;13.748;2023-11-19T09:48:29;1.50;;;0.50;;
9834;SDS011;69850;50.942;13.748;2023-11-19T09:51:50;3.42;;;0.80;;
9834;SDS011;69850;50.942;13.748;2023-11-19T09:55:11;1.23;;;0.70;;
9834;SDS011;69850;50.942;13.748;2023-11-19T09:58:32;3.97;;;0.98;;
9834;SDS011;69850;50.942;13.748;2023-11-19T10:01:53;3.63;;;0.80;;
9834;SDS011;69850;50.942;13.748;2023-11-19T10:05:13;7.40;;;1.13;;
9834;SDS011;69850;50.942;13.748;2023-11-19T10:08:38;1.85;;;0.80;;
9834;SDS011;69850;50.942;13.748;2023-11-19T10:12:01;3.78;;;0.60;;
9834;SDS011;69850;50.942;13.748;2023-11-19T10:15:23;2.15;;;0.82;;
9834;SDS011;69850;50.942;13.748;2023-11-19T10:18:48;1.95;;;0.70;;
9834;SDS011;69850;50.942;13.748;2023-11-19T10:22:10;3.00;;;1.00;;
9834;SDS011;69850;50.942;13.748;2023-11-19T10:25:31;3.75;;;0.70;;
9834;SDS011;69850;50.942;13.748;2023-11-19T10:28:53;4.70;;;1.65;;
9834;SDS011;69850;50.942;13.748;2023-11-19T10:32:13;5.03;;;0.80;;
9834;SDS011;69850;50.942;13.748;2023-11-19T10:35:56;4.15;;;0.88;;
9834;SDS011;69850;50.942;13.748;2023-11-19T10:39:17;1.75;;;0.60;;
9834;SDS011;69850;50.942;13.748;2023-11-19T10:42:38;2.63;;;0.98;;
9834;SDS011;69850;50.942;13.748;2023-11-19T10:46:11;5.15;;;1.20;;
9834;SDS011;69850;50.942;13.748;2023-11-19T10:49:33;2.15;;;0.70;;
9834;SDS011;69850;50.942;13.748;2023-11-19T10:52:58;1.85;;;1.00;;
9834;SDS011;69850;50.942;13.748;2023-11-19T10:56:20;1.63;;;0.50;;
9834;SDS011;69850;50.942;13.748;2023-11-19T10:59:45;3.47;;;0.75;;
9834;SDS011;69850;50.942;13.748;2023-11-19T11:03:09;1.98;;;0.60;;
9834;SDS011;69850;50.942;13.748;2023-11-19T11:06:32;1.10;;;0.50;;
9834;SDS011;69850;50.942;13.748;2023-11-19T11:09:54;2.28;;;0.63;;
9834;SDS011;69850;50.942;13.748;2023-11-19T11:13:15;2.67;;;0.68;;
9834;SDS011;69850;50.942;13.748;2023-11-19T11:16:36;1.73;;;0.50;;
9834;SDS011;69850;50.942;13.748;2023-11-19T11:19:58;0.70;;;0.40;;
9834;SDS011;69850;50.942;13.748;2023-11-19T11:23:24;3.38;;;0.65;;
9834;SDS011;69850;50.942;13.748;2023-11-19T11:38:16;2.45;;;0.70;;
9834;SDS011;69850;50.942;13.748;2023-11-19T11:41:42;3.90;;;0.85;;
9834;SDS011;69850;50.942;13.748;2023-11-19T11:45:06;2.50;;;0.70;;
9834;SDS011;69850;50.942;13.748;2023-11-19T11:48:28;5.07;;;0.95;;
9834;SDS011;69850;50.942;13.748;2023-11-19T11:51:57;4.70;;;0.98;;
9834;SDS011;69850;50.942;13.748;2023-11-19T11:55:18;4.90;;;1.15;;
9834;SDS011;69850;50.942;13.748;2023-11-19T11:58:40;5.55;;;1.50;;
9834;SDS011;69850;50.942;13.748;2023-11-19T12:02:03;6.50;;;1.20;;
9834;SDS011;69850;50.942;13.748;2023-11-19T12:05:23;6.38;;;1.20;;
9834;SDS011;69850;50.942;13.748;2023-11-19T12:08:44;5.95;;;1.23;;
9834;SDS011;69850;50.942;13.748;2023-11-19T12:19:16;6.35;;;1.52;;
9834;SDS011;69850;50.942;13.748;2023-11-19T12:22:37;4.15;;;0.70;;
9834;SDS011;69850;50.942;13.748;2023-11-19T12:25:59;6.63;;;1.40;;
9834;SDS011;69850;50.942;13.748;2023-11-19T12:29:20;8.30;;;1.70;;
9834;SDS011;69850;50.942;13.748;2023-11-19T12:32:41;5.40;;;1.38;;
9834;SDS011;69850;50.942;13.748;2023-11-19T12:36:03;6.60;;;1.52;;
9834;SDS011;69850;50.942;13.748;2023-11-19T12:39:29;9.68;;;1.17;;
9834;SDS011;69850;50.942;13.748;2023-11-19T12:42:50;8.68;;;1.77;;
9834;SDS011;69850;50.942;13.748;2023-11-19T12:49:42;6.50;;;1.30;;
9834;SDS011;69850;50.942;13.748;2023-11-19T12:53:03;8.88;;;1.83;;
9834;SDS011;69850;50.942;13.748;2023-11-19T12:56:24;8.82;;;1.77;;
9834;SDS011;69850;50.942;13.748;2023-11-19T12:59:54;8.93;;;1.67;;
9834;SDS011;69850;50.942;13.748;2023-11-19T13:03:28;7.78;;;1.60;;
9834;SDS011;69850;50.942;13.748;2023-11-19T13:06:50;9.82;;;1.55;;
9834;SDS011;69850;50.942;13.748;2023-11-19T13:10:11;8.43;;;1.58;;
9834;SDS011;69850;50.942;13.748;2023-11-19T13:13:32;8.35;;;1.48;;
9834;SDS011;69850;50.942;13.748;2023-11-19T13:16:53;11.13;;;1.95;;
9834;SDS011;69850;50.942;13.748;2023-11-19T13:20:14;10.73;;;2.00;;
9834;SDS011;69850;50.942;13.748;2023-11-19T13:23:38;9.38;;;2.13;;
9834;SDS011;69850;50.942;13.748;2023-11-19T13:26:58;12.82;;;2.00;;
9834;SDS011;69850;50.942;13.748;2023-11-19T13:30:19;12.30;;;1.90;;
9834;SDS011;69850;50.942;13.748;2023-11-19T13:33:40;13.25;;;2.08;;
9834;SDS011;69850;50.942;13.748;2023-11-19T13:37:01;10.00;;;1.80;;
9834;SDS011;69850;50.942;13.748;2023-11-19T13:40:21;8.77;;;1.60;;
9834;SDS011;69850;50.942;13.748;2023-11-19T13:43:44;6.60;;;1.50;;
9834;SDS011;69850;50.942;13.748;2023-11-19T13:47:05;12.55;;;1.90;;
9834;SDS011;69850;50.942;13.748;2023-11-19T13:50:26;14.70;;;2.25;;
9834;SDS011;69850;50.942;13.748;2023-11-19T13:53:48;9.30;;;1.88;;
9834;SDS011;69850;50.942;13.748;2023-11-19T13:57:09;11.88;;;2.05;;
9834;SDS011;69850;50.942;13.748;2023-11-19T14:00:30;8.82;;;1.70;;
9834;SDS011;69850;50.942;13.748;2023-11-19T14:03:50;10.40;;;1.90;;
9834;SDS011;69850;50.942;13.748;2023-11-19T14:07:11;14.85;;;2.08;;
9834;SDS011;69850;50.942;13.748;2023-11-19T14:10:31;10.98;;;1.77;;
9834;SDS011;69850;50.942;13.748;2023-11-19T14:13:52;10.05;;;2.30;;
9834;SDS011;69850;50.942;13.748;2023-11-19T14:17:12;11.88;;;2.22;;
9834;SDS011;69850;50.942;13.748;2023-11-19T14:20:33;9.45;;;1.70;;
9834;SDS011;69850;50.942;13.748;2023-11-19T14:23:54;13.95;;;2.53;;
9834;SDS011;69850;50.942;13.748;2023-11-19T14:27:14;11.63;;;2.25;;
9834;SDS011;69850;50.942;13.748;2023-11-19T14:30:36;12.10;;;1.75;;
9834;SDS011;69850;50.942;13.748;2023-11-19T14:33:57;9.52;;;1.48;;
9834;SDS011;69850;50.942;13.748;2023-11-19T14:37:17;10.10;;;1.88;;
9834;SDS011;69850;50.942;13.748;2023-11-19T14:40:38;10.18;;;2.10;;
9834;SDS011;69850;50.942;13.748;2023-11-19T14:43:59;10.05;;;2.05;;
9834;SDS011;69850;50.942;13.748;2023-11-19T14:47:19;15.45;;;2.72;;
9834;SDS011;69850;50.942;13.748;2023-11-19T14:50:40;11.95;;;2.10;;
9834;SDS011;69850;50.942;13.748;2023-11-19T14:54:01;11.55;;;2.03;;
9834;SDS011;69850;50.942;13.748;2023-11-19T14:57:21;10.07;;;1.85;;
9834;SDS011;69850;50.942;13.748;2023-11-19T15:00:42;12.68;;;1.92;;
9834;SDS011;69850;50.942;13.748;2023-11-19T15:04:02;9.93;;;2.13;;
9834;SDS011;69850;50.942;13.748;2023-11-19T15:07:23;10.88;;;1.60;;
9834;SDS011;69850;50.942;13.748;2023-11-19T15:10:44;11.60;;;1.98;;
9834;SDS011;69850;50.942;13.748;2023-11-19T15:14:05;15.38;;;2.17;;
9834;SDS011;69850;50.942;13.748;2023-11-19T15:17:26;10.48;;;2.10;;
9834;SDS011;69850;50.942;13.748;2023-11-19T15:20:47;12.20;;;1.80;;
9834;SDS011;69850;50.942;13.748;2023-11-19T15:24:08;12.38;;;2.05;;
9834;SDS011;69850;50.942;13.748;2023-11-19T15:27:29;9.70;;;2.08;;
9834;SDS011;69850;50.942;13.748;2023-11-19T15:30:49;10.85;;;2.28;;
9834;SDS011;69850;50.942;13.748;2023-11-19T15:34:10;9.98;;;2.30;;
9834;SDS011;69850;50.942;13.748;2023-11-19T15:37:31;7.65;;;1.80;;
9834;SDS011;69850;50.942;13.748;2023-11-19T15:40:51;11.02;;;2.00;;
9834;SDS011;69850;50.942;13.748;2023-11-19T15:44:12;10.80;;;2.17;;
9834;SDS011;69850;50.942;13.748;2023-11-19T15:47:33;9.60;;;2.42;;
9834;SDS011;69850;50.942;13.748;2023-11-19T15:50:55;12.63;;;2.28;;
9834;SDS011;69850;50.942;13.748;2023-11-19T15:54:16;11.23;;;1.98;;
9834;SDS011;69850;50.942;13.748;2023-11-19T15:57:36;16.17;;;1.92;;
9834;SDS011;69850;50.942;13.748;2023-11-19T16:00:57;9.93;;;2.13;;
9834;SDS011;69850;50.942;13.748;2023-11-19T16:04:18;9.48;;;2.00;;
9834;SDS011;69850;50.942;13.748;2023-11-19T16:07:38;8.23;;;1.88;;
9834;SDS011;69850;50.942;13.748;2023-11-19T16:10:59;14.25;;;2.67;;
9834;SDS011;69850;50.942;13.748;2023-11-19T16:14:20;12.65;;;2.40;;
9834;SDS011;69850;50.942;13.748;2023-11-19T16:17:41;17.13;;;2.40;;
9834;SDS011;69850;50.942;13.748;2023-11-19T16:21:02;9.13;;;2.03;;
9834;SDS011;69850;50.942;13.748;2023-11-19T16:24:22;9.63;;;1.90;;
9834;SDS011;69850;50.942;13.748;2023-11-19T16:27:43;10.85;;;2.15;;
9834;SDS011;69850;50.942;13.748;2023-11-19T16:31:03;13.50;;;2.10;;
9834;SDS011;69850;50.942;13.748;2023-11-19T16:34:24;12.45;;;1.88;;
9834;SDS011;69850;50.942;13.748;2023-11-19T16:37:45;8.95;;;1.92;;
9834;SDS011;69850;50.942;13.748;2023-11-19T16:41:06;14.80;;;2.40;;
9834;SDS011;69850;50.942;13.748;2023-11-19T16:44:26;7.68;;;1.98;;
9834;SDS011;69850;50.942;13.748;2023-11-19T16:47:47;10.90;;;2.78;;
9834;SDS011;69850;50.942;13.748;2023-11-19T16:51:08;13.23;;;2.40;;
9834;SDS011;69850;50.942;13.748;2023-11-19T16:54:34;13.05;;;3.75;;
9834;SDS011;69850;50.942;13.748;2023-11-19T16:57:54;14.90;;;2.20;;
9834;SDS011;69850;50.942;13.748;2023-11-19T17:01:15;10.95;;;1.80;;
9834;SDS011;69850;50.942;13.748;2023-11-19T17:04:35;11.45;;;1.83;;
9834;SDS011;69850;50.942;13.748;2023-11-19T17:07:56;11.77;;;2.20;;
9834;SDS011;69850;50.942;13.748;2023-11-19T17:11:17;12.45;;;1.90;;
9834;SDS011;69850;50.942;13.748;2023-11-19T17:14:39;9.80;;;1.98;;
9834;SDS011;69850;50.942;13.748;2023-11-19T17:18:00;10.63;;;2.08;;
9834;SDS011;69850;50.942;13.748;2023-11-19T17:21:21;11.02;;;2.20;;
9834;SDS011;69850;50.942;13.748;2023-11-19T17:24:41;10.32;;;2.22;;
9834;SDS011;69850;50.942;13.748;2023-11-19T17:28:02;11.65;;;2.10;;
9834;SDS011;69850;50.942;13.748;2023-11-19T17:31:32;12.68;;;2.40;;
9834;SDS011;69850;50.942;13.748;2023-11-19T17:34:53;11.88;;;2.50;;
9834;SDS011;69850;50.942;13.748;2023-11-19T17:38:13;10.60;;;2.35;;
9834;SDS011;69850;50.942;13.748;2023-11-19T17:41:34;11.77;;;2.50;;
9834;SDS011;69850;50.942;13.748;2023-11-19T17:44:54;14.00;;;2.08;;
9834;SDS011;69850;50.942;13.748;2023-11-19T17:48:18;11.25;;;2.50;;
9834;SDS011;69850;50.942;13.748;2023-11-19T17:51:39;9.73;;;1.98;;
9834;SDS011;69850;50.942;13.748;2023-11-19T17:55:00;17.88;;;2.33;;
9834;SDS011;69850;50.942;13.748;2023-11-19T17:58:23;9.88;;;2.00;;
9834;SDS011;69850;50.942;13.748;2023-11-19T18:01:43;9.32;;;1.90;;
9834;SDS011;69850;50.942;13.748;2023-11-19T18:05:04;8.32;;;1.75;;
9834;SDS011;69850;50.942;13.748;2023-11-19T18:08:26;9.55;;;2.20;;
9834;SDS011;69850;50.942;13.748;2023-11-19T18:11:46;11.43;;;2.47;;
9834;SDS011;69850;50.942;13.748;2023-11-19T18:15:08;11.50;;;2.83;;
9834;SDS011;69850;50.942;13.748;2023-11-19T18:18:29;5.05;;;1.35;;
9834;SDS011;69850;50.942;13.748;2023-11-19T18:21:49;8.50;;;1.83;;
9834;SDS011;69850;50.942;13.748;2023-11-19T18:25:10;11.85;;;2.45;;
9834;SDS011;69850;50.942;13.748;2023-11-19T18:28:31;10.02;;;2.40;;
9834;SDS011;69850;50.942;13.748;2023-11-19T18:31:51;15.00;;;2.55;;
9834;SDS011;69850;50.942;13.748;2023-11-19T18:35:12;15.90;;;2.63;;
9834;SDS011;69850;50.942;13.748;2023-11-19T18:38:36;7.55;;;1.90;;
9834;SDS011;69850;50.942;13.748;2023-11-19T18:41:59;12.18;;;2.35;;
9834;SDS011;69850;50.942;13.748;2023-11-19T18:45:20;16.73;;;2.58;;
9834;SDS011;69850;50.942;13.748;2023-11-19T18:48:41;11.55;;;1.92;;
9834;SDS011;69850;50.942;13.748;2023-11-19T18:52:05;9.10;;;1.88;;
9834;SDS011;69850;50.942;13.748;2023-11-19T18:55:27;13.38;;;1.90;;
9834;SDS011;69850;50.942;13.748;2023-11-19T18:58:49;10.70;;;2.00;;
9834;SDS011;69850;50.942;13.748;2023-11-19T19:02:10;10.60;;;1.98;;
9834;SDS011;69850;50.942;13.748;2023-11-19T19:05:31;10.68;;;2.10;;
9834;SDS011;69850;50.942;13.748;2023-11-19T19:08:51;10.82;;;1.80;;
9834;SDS011;69850;50.942;13.748;2023-11-19T19:12:12;9.57;;;2.08;;
9834;SDS011;69850;50.942;13.748;2023-11-19T19:15:33;13.38;;;2.20;;
9834;SDS011;69850;50.942;13.748;2023-11-19T19:18:53;10.60;;;1.85;;
9834;SDS011;69850;50.942;13.748;2023-11-19T19:22:15;9.27;;;1.88;;
9834;SDS011;69850;50.942;13.748;2023-11-19T19:25:35;14.95;;;2.30;;
9834;SDS011;69850;50.942;13.748;2023-11-19T19:28:56;10.10;;;2.00;;
9834;SDS011;69850;50.942;13.748;2023-11-19T19:32:17;8.75;;;2.05;;
9834;SDS011;69850;50.942;13.748;2023-11-19T19:35:37;6.70;;;1.65;;
9834;SDS011;69850;50.942;13.748;2023-11-19T19:38:59;10.18;;;2.50;;
9834;SDS011;69850;50.942;13.748;2023-11-19T19:42:23;14.48;;;2.28;;
9834;SDS011;69850;50.942;13.748;2023-11-19T19:45:44;12.88;;;2.13;;
9834;SDS011;69850;50.942;13.748;2023-11-19T19:49:04;13.13;;;2.20;;
9834;SDS011;69850;50.942;13.748;2023-11-19T19:52:28;8.15;;;1.80;;
9834;SDS011;69850;50.942;13.748;2023-11-19T19:55:52;8.90;;;1.88;;
9834;SDS011;69850;50.942;13.748;2023-11-19T19:59:13;13.20;;;2.20;;
9834;SDS011;69850;50.942;13.748;2023-11-19T20:02:35;8.85;;;1.63;;
9834;SDS011;69850;50.942;13.748;2023-11-19T20:05:59;15.35;;;2.20;;
9834;SDS011;69850;50.942;13.748;2023-11-19T20:09:20;10.10;;;1.92;;
9834;SDS011;69850;50.942;13.748;2023-11-19T20:12:42;8.52;;;1.70;;
9834;SDS011;69850;50.942;13.748;2023-11-19T20:16:02;7.60;;;1.60;;
9834;SDS011;69850;50.942;13.748;2023-11-19T20:19:23;8.07;;;1.55;;
9834;SDS011;69850;50.942;13.748;2023-11-19T20:22:44;10.90;;;2.03;;
9834;SDS011;69850;50.942;13.748;2023-11-19T20:26:04;10.13;;;2.03;;
9834;SDS011;69850;50.942;13.748;2023-11-19T20:34:07;12.52;;;2.35;;